Latest Weather Observations for Mawson*

IDT60801

Issued at 10:51 pm EDT Saturday 28 November 2020 (issued every 10 minutes, with the page automatically refreshed every 10 minutes)

About weather observations | Map of weather stations | Latest weather observations for ANT | Other Formats
Station Details ID: 300001 Name: MAWSON Lat: -67.60 Lon: 62.88 Height: 9.9 m
Data from the previous 72 hours. | See also: Recent months at Mawson*
Date/Time
EDT
Temp
°C
App
Temp
°C
Dew
Point
°C
Rel
Hum
%
Delta-T
°C
Wind Press
QNH
hPa
Press
MSL
hPa
Rain since
9am
mm
Dir  Spd
km/h
Gust
km/h
Spd
kts
Gust
kts
28/10:30pm -1.7 -7.7 -6.2 71 - E 17 20 9 11 985.9 - -
28/10:00pm -2.1 -7.7 -6.6 71 - ENE 15 19 8 10 985.8 - -
28/09:30pm -1.8 -7.5 -7.1 67 - NE 15 17 8 9 985.9 - -
28/09:00pm -2.2 -8.3 -7.7 66 - NE 17 20 9 11 985.8 - -
28/08:30pm -2.5 -9.2 -8.6 63 - ENE 20 24 11 13 985.7 - -
28/08:00pm -1.7 -8.4 -8.2 61 - NE 20 26 11 14 985.6 985.7 -
28/07:30pm -2.2 -8.9 -8.1 64 - ENE 20 26 11 14 985.5 - -
28/07:00pm -3.2 -10.0 -9.2 63 - NE 20 24 11 13 985.4 - -
28/06:30pm -3.2 -10.7 -8.2 68 - NE 24 28 13 15 985.4 - -
28/06:00pm -3.1 -10.6 -8.2 68 - NE 24 28 13 15 985.3 - -
28/05:30pm -3.4 -11.7 -8.6 67 - NE 28 32 15 17 985.0 - -
28/05:00pm -3.2 -11.3 -7.2 74 - NE 28 32 15 17 984.8 984.9 -
28/04:30pm -2.9 -10.3 -7.8 69 - NE 24 28 13 15 984.8 - -
28/04:00pm -3.8 -10.4 -6.9 79 - NE 20 24 11 13 984.6 - -
28/03:30pm -3.7 -10.4 -7.5 75 - NNE 20 24 11 13 984.4 - -
28/03:00pm -4.1 -10.7 -8.9 69 - NE 19 24 10 13 984.4 - -
28/02:30pm -4.3 -11.0 -8.0 75 - ENE 20 26 11 14 984.4 - -
28/02:00pm -5.2 -12.0 -9.3 73 - ENE 20 24 11 13 984.4 984.5 -
28/01:30pm -5.6 -13.5 -8.6 79 - NE 26 30 14 16 984.2 - -
28/01:00pm -6.1 -14.9 -10.5 71 - E 30 35 16 19 984.0 - -
28/12:30pm -6.1 -15.8 -10.5 71 - E 35 39 19 21 983.8 - -
28/12:00pm -5.7 -14.1 -10.8 67 - ESE 28 33 15 18 983.7 - -
28/11:30am -5.8 -13.5 -11.3 65 - ESE 24 32 13 17 983.7 - -
28/11:00am -5.5 -12.4 -10.1 70 - E 20 26 11 14 983.6 983.7 -
28/10:30am -6.2 -12.6 -11.3 67 - ESE 17 24 9 13 983.5 - -
28/10:00am -7.3 -13.7 -12.0 69 - ESE 17 26 9 14 983.2 - -
28/09:30am -8.0 -12.5 -11.0 79 - NNE 7 11 4 6 983.2 - -
28/09:00am -7.5 -12.3 -10.3 80 - NNE 9 13 5 7 983.1 - -
28/08:30am -6.8 -14.1 -10.6 74 - SE 22 28 12 15 982.5 - -
28/08:00am -6.6 -13.9 -10.4 74 - SE 22 26 12 14 982.3 982.4 -
28/07:30am -5.6 -12.4 -9.3 75 - SE 20 24 11 13 981.9 - -
28/07:00am -5.6 -8.9 -8.0 83 - NE 2 7 1 4 981.9 - -
28/06:30am -5.0 -8.6 -7.7 81 - NE 4 7 2 4 981.9 - -
28/06:00am -4.1 -6.9 -7.2 79 - CALM 0 0 0 0 981.9 - -
28/05:30am -4.3 -8.4 -6.6 84 - ESE 7 9 4 5 981.5 - -
28/05:00am -4.3 -8.4 -6.3 86 - ESE 7 9 4 5 981.2 981.3 -
28/04:30am -4.1 -8.0 -6.2 85 - NNW 6 7 3 4 980.6 - -
28/04:00am -4.1 -7.6 -6.5 83 - NNW 4 7 2 4 980.3 - -
28/03:30am -3.9 -8.3 -6.2 84 - NNW 9 11 5 6 980.0 - -
28/03:00am -3.4 -8.2 -6.5 79 - N 11 15 6 8 979.7 - -
28/02:30am -2.9 -7.4 -6.4 77 - NNW 9 11 5 6 979.4 - -
28/02:00am -2.9 -7.0 -6.5 76 - NW 7 9 4 5 979.2 979.3 -
28/01:30am -2.7 -8.2 -5.7 80 - NW 15 19 8 10 978.9 - -
28/01:00am -2.3 -7.0 -4.9 82 - NW 11 15 6 8 978.8 - -
28/12:30am -2.6 -8.1 -5.4 81 - WNW 15 19 8 10 978.6 - -
28/12:00am -2.6 -8.5 -5.6 80 - NW 17 19 9 10 978.5 - -
 
Date/Time
EDT
Temp
°C
App
Temp
°C
Dew
Point
°C
Rel
Hum
%
Delta-T
°C
Wind Press
QNH
hPa
Press
MSL
hPa
Rain since
9am
mm
Dir  Spd
km/h
Gust
km/h
Spd
kts
Gust
kts
27/11:30pm -2.5 -6.8 -4.7 85 - NNW 9 13 5 7 978.2 - -
27/11:00pm -2.4 -7.1 -4.7 84 - N 11 15 6 8 978.0 978.1 -
27/10:30pm -2.7 -7.8 -4.9 85 - N 13 15 7 8 977.9 - -
27/10:00pm -2.5 -7.5 -4.4 87 - NNE 13 20 7 11 977.8 - -
27/09:30pm -2.6 -6.9 -5.1 83 - N 9 13 5 7 977.5 - -
27/09:00pm -2.3 -7.4 -4.8 83 - N 13 15 7 8 977.4 - -
27/08:30pm -2.5 -7.6 -5.3 81 - NNW 13 15 7 8 977.2 - -
27/08:00pm -2.2 -6.5 -4.7 83 - NNW 9 11 5 6 977.0 977.1 -
27/07:30pm -2.5 -6.8 -4.5 86 - NNW 9 13 5 7 976.8 - -
27/07:00pm -2.8 -6.5 -4.7 87 - NNW 6 7 3 4 976.5 - -
27/06:30pm -3.1 -7.0 -4.5 90 - NW 7 9 4 5 976.3 - -
27/06:00pm -2.8 -7.4 -4.5 88 - NNW 11 13 6 7 976.2 - -
27/05:30pm -2.7 -7.7 -4.4 88 - N 13 15 7 8 976.0 - -
27/05:00pm -3.6 -8.3 -5.0 90 - NE 11 13 6 7 975.7 975.7 -
27/04:30pm -3.8 -7.7 -5.0 91 - NE 7 11 4 6 975.6 - -
27/04:00pm -4.0 -8.3 -5.0 93 - N 9 11 5 6 975.5 - -
27/03:30pm -4.2 -8.2 -5.2 93 - N 7 9 4 5 975.4 - -
27/03:00pm -4.3 -8.6 -5.0 95 - N 9 9 5 5 975.3 - -
27/02:30pm -4.2 -8.5 -4.7 96 - N 9 11 5 6 975.1 - -
27/02:00pm -3.9 -8.2 -4.6 95 - N 9 13 5 7 975.0 975.0 -
27/01:30pm -4.0 -8.3 -4.5 96 - N 9 11 5 6 974.9 - -
27/01:00pm -4.1 -8.8 -4.8 95 - NNE 11 13 6 7 974.9 - -
27/12:30pm -4.2 -8.5 -5.2 93 - NE 9 13 5 7 974.7 - -
27/12:00pm -4.1 -8.4 -4.9 94 - NNE 9 11 5 6 974.7 - -
27/11:30am -4.1 -8.4 -4.9 94 - NE 9 13 5 7 974.7 - -
27/11:00am -3.9 -8.2 -4.7 94 - N 9 13 5 7 974.6 974.6 -
27/10:30am -3.4 -7.3 -6.5 79 - ESE 6 7 3 4 974.4 - -
27/10:00am -3.5 -8.3 -6.4 80 - E 11 13 6 7 974.3 - -
27/09:30am -4.0 -8.0 -6.0 86 - NE 7 9 4 5 974.2 - -
27/09:00am -3.9 -8.3 -6.2 84 - NE 9 11 5 6 974.1 - -
27/08:30am -3.7 -7.5 -5.8 85 - NE 6 9 3 5 974.1 - -
27/08:00am -3.7 -7.2 -5.8 85 - NE 4 7 2 4 974.0 974.0 -
27/07:30am -3.5 -7.3 -5.8 84 - NE 6 7 3 4 973.8 - -
27/07:00am -3.2 -7.3 -6.5 78 - NE 7 13 4 7 973.7 - -
27/06:30am -3.1 -7.0 -6.2 79 - ENE 6 9 3 5 973.5 - -
27/06:00am -3.5 -7.3 -5.2 88 - NE 6 6 3 3 973.5 - -
27/05:30am -3.5 -7.8 -5.2 88 - NNE 9 9 5 5 973.3 - -
27/05:00am -3.3 -8.4 -5.5 85 - NNE 13 15 7 8 973.1 973.1 -
27/04:30am -3.0 -8.2 -6.1 79 - NE 13 17 7 9 973.0 - -
27/04:00am -3.0 -8.9 -6.1 79 - ENE 17 20 9 11 972.7 - -
27/03:30am -2.7 -9.3 -6.7 74 - E 20 26 11 14 972.6 - -
27/03:00am -2.5 -8.5 -6.3 75 - E 17 20 9 11 972.6 - -
27/02:30am -2.5 -6.9 -5.5 80 - E 9 11 5 6 972.6 - -
27/02:00am -2.8 -7.4 -3.9 92 - SW 11 13 6 7 972.7 972.7 -
27/01:30am -2.6 -6.8 -4.3 88 - WNW 9 11 5 6 972.6 - -
27/01:00am -2.2 -4.8 -4.8 82 - CALM 0 0 0 0 972.5 - -
27/12:30am -2.1 -6.4 -4.6 83 - NNE 9 13 5 7 972.5 - -
27/12:00am -2.0 -7.1 -4.8 81 - NNE 13 17 7 9 972.4 - -
 
Date/Time
EDT
Temp
°C
App
Temp
°C
Dew
Point
°C
Rel
Hum
%
Delta-T
°C
Wind Press
QNH
hPa
Press
MSL
hPa
Rain since
9am
mm
Dir  Spd
km/h
Gust
km/h
Spd
kts
Gust
kts
26/11:30pm -2.0 -9.2 -5.7 76 - ESE 24 28 13 15 972.1 - -
26/11:00pm -1.9 -11.2 -5.4 77 - ESE 35 41 19 22 972.0 972.0 -
26/10:30pm -1.5 -10.8 -5.2 76 - E 35 50 19 27 972.0 - -
26/10:22pm -1.8 -11.8 -5.1 78 - E 39 50 21 27 971.7 - -
26/10:00pm -1.8 -11.8 -4.8 80 - SE 39 57 21 31 971.5 - -
26/09:34pm -2.2 -12.9 -4.5 84 - SE 43 61 23 33 971.6 - -
26/09:30pm -2.1 -13.7 -4.1 86 - ESE 48 63 26 34 971.4 - -
26/09:00pm -2.4 -14.0 -4.0 89 - SE 48 69 26 37 971.2 - -
26/08:51pm -2.5 -14.5 -3.9 90 - SE 50 69 27 37 971.1 - -
26/08:30pm -2.5 -14.9 -3.8 91 - ESE 52 69 28 37 971.3 - -
26/08:00pm -2.9 -16.2 -3.7 94 - ESE 57 70 31 38 970.8 970.8 -
26/07:30pm -3.0 -17.1 -3.7 95 - ESE 61 69 33 37 970.9 - -
26/07:00pm -3.5 -17.6 -4.0 96 - ESE 61 70 33 38 970.8 - -
26/06:30pm -3.8 -17.9 -4.2 97 - ESE 61 76 33 41 970.6 - -
26/06:00pm -4.2 -19.1 -4.6 97 - ESE 65 78 35 42 970.4 - -
26/05:30pm -4.3 -19.6 -4.7 97 - ESE 67 78 36 42 970.1 - -
26/05:00pm -4.5 -21.2 -4.9 97 - ESE 74 87 40 47 969.9 969.9 -
26/04:38pm -4.5 -20.2 -4.9 97 - ESE 69 87 37 47 969.8 - -
26/04:30pm -4.4 -20.3 -4.8 97 - ESE 70 87 38 47 969.6 - -
26/04:23pm -4.4 -20.1 -4.8 97 - ESE 69 87 37 47 969.6 - -
26/04:00pm -4.5 -20.4 -4.9 97 - ESE 70 85 38 46 969.5 - -
26/03:30pm -5.2 -23.4 -5.6 97 - ESE 82 95 44 51 969.3 - -
26/03:00pm -5.2 -23.4 -5.5 98 - ESE 82 96 44 52 969.3 - -
26/02:30pm -5.2 -23.4 -5.6 97 - ESE 82 95 44 51 969.2 - -
26/02:00pm -5.2 -23.6 -5.6 97 - ESE 83 104 45 56 969.2 969.2 -
26/01:33pm -4.9 -22.7 -5.2 98 - ESE 80 98 43 53 969.6 - -
26/01:30pm -5.1 -23.3 -5.4 98 - ESE 82 98 44 53 969.3 - -
26/01:21pm -5.2 -23.4 -5.5 98 - ESE 82 100 44 54 969.8 - -
26/01:00pm -5.4 -24.2 -5.7 98 - ESE 85 98 46 53 969.4 - -
26/12:30pm -5.5 -25.1 -5.8 98 - ESE 89 107 48 58 969.4 - -
26/12:00pm -5.4 -24.2 -5.7 98 - ESE 85 104 46 56 969.6 - -
26/11:30am -5.5 -24.7 -5.8 98 - ESE 87 111 47 60 969.7 - -
26/11:06am -5.4 -24.6 -5.7 98 - ESE 87 109 47 59 969.5 - -
26/11:00am -5.3 -24.1 -5.6 98 - ESE 85 102 46 55 969.6 969.6 -
26/10:30am -5.4 -24.6 -5.8 97 - ESE 87 107 47 58 969.8 - -
26/10:01am -5.2 -23.6 -5.6 97 - ESE 83 102 45 55 970.1 - -
26/10:00am -5.2 -23.4 -5.6 97 - ESE 82 98 44 53 970.2 - -
26/09:32am -5.1 -22.6 -5.4 98 - ESE 78 96 42 52 970.6 - -
26/09:30am -5.1 -22.2 -5.4 98 - ESE 76 91 41 49 970.7 - -
26/09:00am -5.0 -22.8 -5.4 97 - ESE 80 98 43 53 970.3 - -
26/08:30am -4.8 -23.0 -5.1 98 - ESE 82 102 44 55 971.0 - -
26/08:05am -5.0 -22.8 -5.3 98 - ESE 80 98 43 53 971.3 - -
26/08:00am -5.2 -23.6 -5.5 98 - ESE 83 98 45 53 971.6 971.6 -
26/07:30am -4.9 -23.3 -5.2 98 - ESE 83 102 45 55 972.0 - -
26/07:09am -5.0 -23.2 -5.3 98 - ESE 82 100 44 54 972.8 - -
26/07:00am -5.0 -23.2 -5.3 98 - ESE 82 96 44 52 973.0 - -
26/06:30am -4.9 -24.4 -5.0 99 - ESE 89 107 48 58 973.9 - -
26/06:00am -4.9 -23.7 -5.0 99 - ESE 85 104 46 56 974.2 - -
26/05:34am -4.9 -24.0 -5.0 99 - ESE 87 106 47 57 975.0 - -
26/05:30am -4.9 -24.4 -5.0 99 - ESE 89 106 48 57 975.1 - -
26/05:18am -4.9 -23.3 -5.0 99 - ESE 83 102 45 55 975.5 - -
26/05:00am -4.7 -22.9 -4.8 99 - ESE 82 98 44 53 976.0 976.0 -
26/04:30am -4.6 -22.4 -4.7 99 - ESE 80 98 43 53 976.3 - -
26/04:00am -4.4 -19.7 -4.7 98 - ESE 67 89 36 48 976.7 - -

Other formats

Comma delimited format used in spreadsheet applications
http://www.bom.gov.au/fwo/IDT60803/IDT60803.89564.axf

JavaScript Object Notation format (JSON) in row-major order
http://www.bom.gov.au/fwo/IDT60803/IDT60803.89564.json

Data quality

Most of these data are generated automatically and are frequently updated. Quality checks on data are not normally performed. It is possible for incorrect values to appear. Refer to information at About Latest Weather Observations and please check the disclaimer before using these data.